sensor_id;sensor_type;location;lat;lon;timestamp;P1;durP1;ratioP1;P2;durP2;ratioP2
956;SDS011;465;48.802;9.224;2022-08-21T00:01:29;6.63;;;5.70;;
956;SDS011;465;48.802;9.224;2022-08-21T00:03:56;8.20;;;5.70;;
956;SDS011;465;48.802;9.224;2022-08-21T00:06:23;6.97;;;6.27;;
956;SDS011;465;48.802;9.224;2022-08-21T00:08:52;6.07;;;5.37;;
956;SDS011;465;48.802;9.224;2022-08-21T00:11:19;5.97;;;5.37;;
956;SDS011;465;48.802;9.224;2022-08-21T00:13:46;10.53;;;5.17;;
956;SDS011;465;48.802;9.224;2022-08-21T00:16:13;6.20;;;5.13;;
956;SDS011;465;48.802;9.224;2022-08-21T00:18:40;6.53;;;5.50;;
956;SDS011;465;48.802;9.224;2022-08-21T00:21:06;5.17;;;4.67;;
956;SDS011;465;48.802;9.224;2022-08-21T00:23:34;6.20;;;5.60;;
956;SDS011;465;48.802;9.224;2022-08-21T00:26:02;7.00;;;5.20;;
956;SDS011;465;48.802;9.224;2022-08-21T00:28:29;6.50;;;5.83;;
956;SDS011;465;48.802;9.224;2022-08-21T00:30:56;8.50;;;5.20;;
956;SDS011;465;48.802;9.224;2022-08-21T00:33:24;7.70;;;5.70;;
956;SDS011;465;48.802;9.224;2022-08-21T00:35:51;7.93;;;4.70;;
956;SDS011;465;48.802;9.224;2022-08-21T00:38:18;6.23;;;5.20;;
956;SDS011;465;48.802;9.224;2022-08-21T00:40:46;11.83;;;6.07;;
956;SDS011;465;48.802;9.224;2022-08-21T00:43:17;5.73;;;5.00;;
956;SDS011;465;48.802;9.224;2022-08-21T00:45:46;6.27;;;5.63;;
956;SDS011;465;48.802;9.224;2022-08-21T00:48:12;7.53;;;4.87;;
956;SDS011;465;48.802;9.224;2022-08-21T00:50:41;7.63;;;4.90;;
956;SDS011;465;48.802;9.224;2022-08-21T00:53:12;5.10;;;4.53;;
956;SDS011;465;48.802;9.224;2022-08-21T00:55:40;8.20;;;5.40;;
956;SDS011;465;48.802;9.224;2022-08-21T00:58:07;7.63;;;5.80;;
956;SDS011;465;48.802;9.224;2022-08-21T01:00:39;5.50;;;5.00;;
956;SDS011;465;48.802;9.224;2022-08-21T01:03:09;6.50;;;4.40;;
956;SDS011;465;48.802;9.224;2022-08-21T01:05:38;6.00;;;4.93;;
956;SDS011;465;48.802;9.224;2022-08-21T01:08:05;6.10;;;5.30;;
956;SDS011;465;48.802;9.224;2022-08-21T01:10:33;4.80;;;4.07;;
956;SDS011;465;48.802;9.224;2022-08-21T01:13:00;5.40;;;4.90;;
956;SDS011;465;48.802;9.224;2022-08-21T01:15:29;5.00;;;4.50;;
956;SDS011;465;48.802;9.224;2022-08-21T01:17:59;5.10;;;4.60;;
956;SDS011;465;48.802;9.224;2022-08-21T01:20:27;6.07;;;4.30;;
956;SDS011;465;48.802;9.224;2022-08-21T01:22:55;6.30;;;4.53;;
956;SDS011;465;48.802;9.224;2022-08-21T01:25:22;5.80;;;3.90;;
956;SDS011;465;48.802;9.224;2022-08-21T01:27:49;5.20;;;4.70;;
956;SDS011;465;48.802;9.224;2022-08-21T01:30:17;8.60;;;4.63;;
956;SDS011;465;48.802;9.224;2022-08-21T01:32:48;7.40;;;4.70;;
956;SDS011;465;48.802;9.224;2022-08-21T01:35:16;5.90;;;4.80;;
956;SDS011;465;48.802;9.224;2022-08-21T01:37:45;4.60;;;4.20;;
956;SDS011;465;48.802;9.224;2022-08-21T01:40:14;5.97;;;5.10;;
956;SDS011;465;48.802;9.224;2022-08-21T01:42:44;5.13;;;3.97;;
956;SDS011;465;48.802;9.224;2022-08-21T01:45:11;5.90;;;4.33;;
956;SDS011;465;48.802;9.224;2022-08-21T01:47:38;8.23;;;4.50;;
956;SDS011;465;48.802;9.224;2022-08-21T01:50:06;5.40;;;4.90;;
956;SDS011;465;48.802;9.224;2022-08-21T01:52:36;4.23;;;3.83;;
956;SDS011;465;48.802;9.224;2022-08-21T01:55:03;6.77;;;4.80;;
956;SDS011;465;48.802;9.224;2022-08-21T01:57:32;6.20;;;4.00;;
956;SDS011;465;48.802;9.224;2022-08-21T01:59:59;7.37;;;4.77;;
956;SDS011;465;48.802;9.224;2022-08-21T02:02:26;4.60;;;4.20;;
956;SDS011;465;48.802;9.224;2022-08-21T02:04:52;7.90;;;4.50;;
956;SDS011;465;48.802;9.224;2022-08-21T02:07:19;4.93;;;4.20;;
956;SDS011;465;48.802;9.224;2022-08-21T02:09:46;6.07;;;4.07;;
956;SDS011;465;48.802;9.224;2022-08-21T02:12:13;5.77;;;4.17;;
956;SDS011;465;48.802;9.224;2022-08-21T02:14:41;7.10;;;5.17;;
956;SDS011;465;48.802;9.224;2022-08-21T02:17:08;8.90;;;4.73;;
956;SDS011;465;48.802;9.224;2022-08-21T02:19:35;7.83;;;4.97;;
956;SDS011;465;48.802;9.224;2022-08-21T02:22:02;8.27;;;4.57;;
956;SDS011;465;48.802;9.224;2022-08-21T02:24:29;5.87;;;5.27;;
956;SDS011;465;48.802;9.224;2022-08-21T02:26:56;8.37;;;4.90;;
956;SDS011;465;48.802;9.224;2022-08-21T02:29:23;4.93;;;4.23;;
956;SDS011;465;48.802;9.224;2022-08-21T02:31:51;7.63;;;4.80;;
956;SDS011;465;48.802;9.224;2022-08-21T02:34:18;8.00;;;5.80;;
956;SDS011;465;48.802;9.224;2022-08-21T02:36:44;6.30;;;5.50;;
956;SDS011;465;48.802;9.224;2022-08-21T02:39:11;6.50;;;5.33;;
956;SDS011;465;48.802;9.224;2022-08-21T02:41:38;7.90;;;4.70;;
956;SDS011;465;48.802;9.224;2022-08-21T02:44:04;7.40;;;6.73;;
956;SDS011;465;48.802;9.224;2022-08-21T02:46:31;7.17;;;4.90;;
956;SDS011;465;48.802;9.224;2022-08-21T02:48:59;6.10;;;4.73;;
956;SDS011;465;48.802;9.224;2022-08-21T02:51:26;7.40;;;5.20;;
956;SDS011;465;48.802;9.224;2022-08-21T02:53:53;6.10;;;5.60;;
956;SDS011;465;48.802;9.224;2022-08-21T02:56:20;5.30;;;4.80;;
956;SDS011;465;48.802;9.224;2022-08-21T02:58:49;6.30;;;5.53;;
956;SDS011;465;48.802;9.224;2022-08-21T03:01:18;6.43;;;4.70;;
956;SDS011;465;48.802;9.224;2022-08-21T03:03:46;5.93;;;4.63;;
956;SDS011;465;48.802;9.224;2022-08-21T03:06:16;5.50;;;4.90;;
956;SDS011;465;48.802;9.224;2022-08-21T03:08:44;7.70;;;5.07;;
956;SDS011;465;48.802;9.224;2022-08-21T03:11:11;5.30;;;4.80;;
956;SDS011;465;48.802;9.224;2022-08-21T03:13:38;5.43;;;4.93;;
956;SDS011;465;48.802;9.224;2022-08-21T03:16:06;5.40;;;4.90;;
956;SDS011;465;48.802;9.224;2022-08-21T03:18:33;7.73;;;5.20;;
956;SDS011;465;48.802;9.224;2022-08-21T03:21:00;5.70;;;5.20;;
956;SDS011;465;48.802;9.224;2022-08-21T03:23:28;15.33;;;5.20;;
956;SDS011;465;48.802;9.224;2022-08-21T03:25:57;5.93;;;4.80;;
956;SDS011;465;48.802;9.224;2022-08-21T03:28:23;6.33;;;4.90;;
956;SDS011;465;48.802;9.224;2022-08-21T03:30:50;8.37;;;5.30;;
956;SDS011;465;48.802;9.224;2022-08-21T03:33:18;8.90;;;5.10;;
956;SDS011;465;48.802;9.224;2022-08-21T03:35:47;5.80;;;4.40;;
956;SDS011;465;48.802;9.224;2022-08-21T03:38:18;7.00;;;4.83;;
956;SDS011;465;48.802;9.224;2022-08-21T03:40:46;9.77;;;5.00;;
956;SDS011;465;48.802;9.224;2022-08-21T03:43:13;6.20;;;5.60;;
956;SDS011;465;48.802;9.224;2022-08-21T03:45:39;8.87;;;5.17;;
956;SDS011;465;48.802;9.224;2022-08-21T03:48:07;7.23;;;5.20;;
956;SDS011;465;48.802;9.224;2022-08-21T03:50:36;7.17;;;5.30;;
956;SDS011;465;48.802;9.224;2022-08-21T03:53:05;5.53;;;5.00;;
956;SDS011;465;48.802;9.224;2022-08-21T03:55:32;5.47;;;4.80;;
956;SDS011;465;48.802;9.224;2022-08-21T03:58:00;5.97;;;5.00;;
956;SDS011;465;48.802;9.224;2022-08-21T04:00:29;5.97;;;5.10;;
956;SDS011;465;48.802;9.224;2022-08-21T04:02:55;6.67;;;5.03;;
956;SDS011;465;48.802;9.224;2022-08-21T04:05:22;6.17;;;5.20;;
956;SDS011;465;48.802;9.224;2022-08-21T04:07:56;6.23;;;5.50;;
956;SDS011;465;48.802;9.224;2022-08-21T04:10:24;8.50;;;5.40;;
956;SDS011;465;48.802;9.224;2022-08-21T04:12:52;5.63;;;4.97;;
956;SDS011;465;48.802;9.224;2022-08-21T04:15:22;5.77;;;4.83;;
956;SDS011;465;48.802;9.224;2022-08-21T04:17:50;8.03;;;4.70;;
956;SDS011;465;48.802;9.224;2022-08-21T04:20:18;8.47;;;5.70;;
956;SDS011;465;48.802;9.224;2022-08-21T04:22:46;5.70;;;5.10;;
956;SDS011;465;48.802;9.224;2022-08-21T04:25:15;9.67;;;6.00;;
956;SDS011;465;48.802;9.224;2022-08-21T04:27:43;8.10;;;5.63;;
956;SDS011;465;48.802;9.224;2022-08-21T04:30:11;11.37;;;4.90;;
956;SDS011;465;48.802;9.224;2022-08-21T04:32:41;8.47;;;4.90;;
956;SDS011;465;48.802;9.224;2022-08-21T04:35:09;6.00;;;5.47;;
956;SDS011;465;48.802;9.224;2022-08-21T04:37:37;6.60;;;4.80;;
956;SDS011;465;48.802;9.224;2022-08-21T04:40:04;5.27;;;4.77;;
956;SDS011;465;48.802;9.224;2022-08-21T04:42:32;6.67;;;5.70;;
956;SDS011;465;48.802;9.224;2022-08-21T04:45:06;5.70;;;5.10;;
956;SDS011;465;48.802;9.224;2022-08-21T04:47:33;5.70;;;5.10;;
956;SDS011;465;48.802;9.224;2022-08-21T04:50:01;5.90;;;5.40;;
956;SDS011;465;48.802;9.224;2022-08-21T04:52:27;7.50;;;6.30;;
956;SDS011;465;48.802;9.224;2022-08-21T04:54:54;6.03;;;5.53;;
956;SDS011;465;48.802;9.224;2022-08-21T04:57:21;5.60;;;5.10;;
956;SDS011;465;48.802;9.224;2022-08-21T04:59:49;9.00;;;5.33;;
956;SDS011;465;48.802;9.224;2022-08-21T05:02:16;5.73;;;4.97;;
956;SDS011;465;48.802;9.224;2022-08-21T05:04:46;6.47;;;5.37;;
956;SDS011;465;48.802;9.224;2022-08-21T05:07:17;5.80;;;5.30;;
956;SDS011;465;48.802;9.224;2022-08-21T05:09:47;7.30;;;4.80;;
956;SDS011;465;48.802;9.224;2022-08-21T05:12:15;6.57;;;5.93;;
956;SDS011;465;48.802;9.224;2022-08-21T05:14:41;6.00;;;5.40;;
956;SDS011;465;48.802;9.224;2022-08-21T05:17:08;5.33;;;4.10;;
956;SDS011;465;48.802;9.224;2022-08-21T05:19:35;5.07;;;4.67;;
956;SDS011;465;48.802;9.224;2022-08-21T05:22:02;9.73;;;4.20;;
956;SDS011;465;48.802;9.224;2022-08-21T05:24:30;4.50;;;4.10;;
956;SDS011;465;48.802;9.224;2022-08-21T05:26:57;5.83;;;4.40;;
956;SDS011;465;48.802;9.224;2022-08-21T05:29:24;5.70;;;4.20;;
956;SDS011;465;48.802;9.224;2022-08-21T05:31:51;4.67;;;4.20;;
956;SDS011;465;48.802;9.224;2022-08-21T05:34:21;6.83;;;4.30;;
956;SDS011;465;48.802;9.224;2022-08-21T05:36:49;7.53;;;5.10;;
956;SDS011;465;48.802;9.224;2022-08-21T05:39:15;5.10;;;4.30;;
956;SDS011;465;48.802;9.224;2022-08-21T05:41:43;6.70;;;5.27;;
956;SDS011;465;48.802;9.224;2022-08-21T05:44:10;7.60;;;4.70;;
956;SDS011;465;48.802;9.224;2022-08-21T05:46:37;5.83;;;3.93;;
956;SDS011;465;48.802;9.224;2022-08-21T05:49:04;6.20;;;5.70;;
956;SDS011;465;48.802;9.224;2022-08-21T05:51:30;7.23;;;5.30;;
956;SDS011;465;48.802;9.224;2022-08-21T05:53:57;8.50;;;5.40;;
956;SDS011;465;48.802;9.224;2022-08-21T05:56:24;6.03;;;4.80;;
956;SDS011;465;48.802;9.224;2022-08-21T05:58:52;6.23;;;4.50;;
956;SDS011;465;48.802;9.224;2022-08-21T06:01:19;4.93;;;4.50;;
956;SDS011;465;48.802;9.224;2022-08-21T06:03:46;5.57;;;5.07;;
956;SDS011;465;48.802;9.224;2022-08-21T06:06:12;4.70;;;4.10;;
956;SDS011;465;48.802;9.224;2022-08-21T06:08:39;6.33;;;4.50;;
956;SDS011;465;48.802;9.224;2022-08-21T06:11:07;5.40;;;4.27;;
956;SDS011;465;48.802;9.224;2022-08-21T06:13:35;4.50;;;4.10;;
956;SDS011;465;48.802;9.224;2022-08-21T06:16:05;9.60;;;5.90;;
956;SDS011;465;48.802;9.224;2022-08-21T06:18:33;6.30;;;4.43;;
956;SDS011;465;48.802;9.224;2022-08-21T06:21:01;5.80;;;4.53;;
956;SDS011;465;48.802;9.224;2022-08-21T06:23:28;4.73;;;4.23;;
956;SDS011;465;48.802;9.224;2022-08-21T06:25:55;4.80;;;4.30;;
956;SDS011;465;48.802;9.224;2022-08-21T06:28:22;4.57;;;4.17;;
956;SDS011;465;48.802;9.224;2022-08-21T06:30:48;5.37;;;4.10;;
956;SDS011;465;48.802;9.224;2022-08-21T06:33:17;4.20;;;3.60;;
956;SDS011;465;48.802;9.224;2022-08-21T06:35:43;3.93;;;3.37;;
956;SDS011;465;48.802;9.224;2022-08-21T06:38:10;4.50;;;4.10;;
956;SDS011;465;48.802;9.224;2022-08-21T06:40:37;5.03;;;4.03;;
956;SDS011;465;48.802;9.224;2022-08-21T06:43:05;5.47;;;4.43;;
956;SDS011;465;48.802;9.224;2022-08-21T06:45:33;4.20;;;3.80;;
956;SDS011;465;48.802;9.224;2022-08-21T06:47:59;6.60;;;5.87;;
956;SDS011;465;48.802;9.224;2022-08-21T06:50:27;5.00;;;3.77;;
956;SDS011;465;48.802;9.224;2022-08-21T06:52:58;5.10;;;3.60;;
956;SDS011;465;48.802;9.224;2022-08-21T06:55:26;4.93;;;3.93;;
956;SDS011;465;48.802;9.224;2022-08-21T06:57:53;5.20;;;3.73;;
956;SDS011;465;48.802;9.224;2022-08-21T07:00:19;6.70;;;3.93;;
956;SDS011;465;48.802;9.224;2022-08-21T07:02:46;6.90;;;4.53;;
956;SDS011;465;48.802;9.224;2022-08-21T07:05:13;3.97;;;3.43;;
956;SDS011;465;48.802;9.224;2022-08-21T07:07:42;6.70;;;4.30;;
956;SDS011;465;48.802;9.224;2022-08-21T07:10:09;5.43;;;3.10;;
956;SDS011;465;48.802;9.224;2022-08-21T07:12:36;7.50;;;4.40;;
956;SDS011;465;48.802;9.224;2022-08-21T07:15:03;4.37;;;3.67;;
956;SDS011;465;48.802;9.224;2022-08-21T07:17:31;6.23;;;3.87;;
956;SDS011;465;48.802;9.224;2022-08-21T07:19:58;4.40;;;3.53;;
956;SDS011;465;48.802;9.224;2022-08-21T07:22:24;5.30;;;3.53;;
956;SDS011;465;48.802;9.224;2022-08-21T07:24:53;4.70;;;3.60;;
956;SDS011;465;48.802;9.224;2022-08-21T07:27:20;4.13;;;3.50;;
956;SDS011;465;48.802;9.224;2022-08-21T07:29:47;4.40;;;3.10;;
956;SDS011;465;48.802;9.224;2022-08-21T07:32:14;4.33;;;3.73;;
956;SDS011;465;48.802;9.224;2022-08-21T07:34:41;7.27;;;3.30;;
956;SDS011;465;48.802;9.224;2022-08-21T07:37:08;5.53;;;3.87;;
956;SDS011;465;48.802;9.224;2022-08-21T07:39:35;5.17;;;3.53;;
956;SDS011;465;48.802;9.224;2022-08-21T07:42:03;4.80;;;3.87;;
956;SDS011;465;48.802;9.224;2022-08-21T07:44:30;6.33;;;4.23;;
956;SDS011;465;48.802;9.224;2022-08-21T07:46:59;7.50;;;4.40;;
956;SDS011;465;48.802;9.224;2022-08-21T07:49:26;6.67;;;4.53;;
956;SDS011;465;48.802;9.224;2022-08-21T07:51:53;4.53;;;3.70;;
956;SDS011;465;48.802;9.224;2022-08-21T07:54:19;5.53;;;3.27;;
956;SDS011;465;48.802;9.224;2022-08-21T07:56:46;9.03;;;4.20;;
956;SDS011;465;48.802;9.224;2022-08-21T07:59:14;5.70;;;4.20;;
956;SDS011;465;48.802;9.224;2022-08-21T08:01:41;6.03;;;4.20;;
956;SDS011;465;48.802;9.224;2022-08-21T08:04:07;6.13;;;4.10;;
956;SDS011;465;48.802;9.224;2022-08-21T08:06:34;5.40;;;3.90;;
956;SDS011;465;48.802;9.224;2022-08-21T08:09:01;4.20;;;3.80;;
956;SDS011;465;48.802;9.224;2022-08-21T08:11:29;7.57;;;4.53;;
956;SDS011;465;48.802;9.224;2022-08-21T08:13:58;6.40;;;4.60;;
956;SDS011;465;48.802;9.224;2022-08-21T08:16:27;5.83;;;3.90;;
956;SDS011;465;48.802;9.224;2022-08-21T08:18:54;6.30;;;4.40;;
956;SDS011;465;48.802;9.224;2022-08-21T08:21:21;6.07;;;4.07;;
956;SDS011;465;48.802;9.224;2022-08-21T08:23:48;7.50;;;4.73;;
956;SDS011;465;48.802;9.224;2022-08-21T08:26:15;6.07;;;4.47;;
956;SDS011;465;48.802;9.224;2022-08-21T08:28:42;5.10;;;4.27;;
956;SDS011;465;48.802;9.224;2022-08-21T08:31:08;4.73;;;3.60;;
956;SDS011;465;48.802;9.224;2022-08-21T08:33:37;6.33;;;4.40;;
956;SDS011;465;48.802;9.224;2022-08-21T08:36:04;6.30;;;5.10;;
956;SDS011;465;48.802;9.224;2022-08-21T08:38:31;5.63;;;4.70;;
956;SDS011;465;48.802;9.224;2022-08-21T08:41:00;6.23;;;4.93;;
956;SDS011;465;48.802;9.224;2022-08-21T08:43:38;6.77;;;5.00;;
956;SDS011;465;48.802;9.224;2022-08-21T08:46:09;6.33;;;4.50;;
956;SDS011;465;48.802;9.224;2022-08-21T08:48:43;5.00;;;4.50;;
956;SDS011;465;48.802;9.224;2022-08-21T08:51:16;4.80;;;4.40;;
956;SDS011;465;48.802;9.224;2022-08-21T08:53:50;6.87;;;3.87;;
956;SDS011;465;48.802;9.224;2022-08-21T08:56:21;5.43;;;4.93;;
956;SDS011;465;48.802;9.224;2022-08-21T08:58:52;5.40;;;3.90;;
956;SDS011;465;48.802;9.224;2022-08-21T09:01:22;4.20;;;3.80;;
956;SDS011;465;48.802;9.224;2022-08-21T09:03:50;6.10;;;4.40;;
956;SDS011;465;48.802;9.224;2022-08-21T09:09:09;4.60;;;3.80;;
956;SDS011;465;48.802;9.224;2022-08-21T09:11:47;5.33;;;4.40;;
956;SDS011;465;48.802;9.224;2022-08-21T09:14:21;5.00;;;3.77;;
956;SDS011;465;48.802;9.224;2022-08-21T09:16:56;5.37;;;4.87;;
956;SDS011;465;48.802;9.224;2022-08-21T09:19:36;5.17;;;3.90;;
956;SDS011;465;48.802;9.224;2022-08-21T09:22:16;4.90;;;4.50;;
956;SDS011;465;48.802;9.224;2022-08-21T09:24:52;5.70;;;4.70;;
956;SDS011;465;48.802;9.224;2022-08-21T09:27:25;5.40;;;3.87;;
956;SDS011;465;48.802;9.224;2022-08-21T09:29:53;4.73;;;4.23;;
956;SDS011;465;48.802;9.224;2022-08-21T09:32:23;5.83;;;4.30;;
956;SDS011;465;48.802;9.224;2022-08-21T09:34:57;5.00;;;4.07;;
956;SDS011;465;48.802;9.224;2022-08-21T09:37:26;4.93;;;4.40;;
956;SDS011;465;48.802;9.224;2022-08-21T09:39:54;5.00;;;3.83;;
956;SDS011;465;48.802;9.224;2022-08-21T09:42:23;4.50;;;4.10;;
956;SDS011;465;48.802;9.224;2022-08-21T09:45:06;5.70;;;4.03;;
956;SDS011;465;48.802;9.224;2022-08-21T09:47:35;5.50;;;4.53;;
956;SDS011;465;48.802;9.224;2022-08-21T09:50:11;4.60;;;4.20;;
956;SDS011;465;48.802;9.224;2022-08-21T09:52:44;6.27;;;4.23;;
956;SDS011;465;48.802;9.224;2022-08-21T09:55:15;6.90;;;4.47;;
956;SDS011;465;48.802;9.224;2022-08-21T09:58:04;4.50;;;3.70;;
956;SDS011;465;48.802;9.224;2022-08-21T10:00:34;5.47;;;4.23;;
956;SDS011;465;48.802;9.224;2022-08-21T10:03:10;6.60;;;4.07;;
956;SDS011;465;48.802;9.224;2022-08-21T10:05:50;5.57;;;4.10;;
956;SDS011;465;48.802;9.224;2022-08-21T10:08:21;5.10;;;4.00;;
956;SDS011;465;48.802;9.224;2022-08-21T10:10:50;5.00;;;4.27;;
956;SDS011;465;48.802;9.224;2022-08-21T10:13:21;4.53;;;3.67;;
956;SDS011;465;48.802;9.224;2022-08-21T10:16:05;4.30;;;3.70;;
956;SDS011;465;48.802;9.224;2022-08-21T10:18:42;6.30;;;3.90;;
956;SDS011;465;48.802;9.224;2022-08-21T10:21:21;5.00;;;4.10;;
956;SDS011;465;48.802;9.224;2022-08-21T10:23:54;6.27;;;4.20;;
956;SDS011;465;48.802;9.224;2022-08-21T10:26:35;5.70;;;4.13;;
956;SDS011;465;48.802;9.224;2022-08-21T10:29:11;6.70;;;4.27;;
956;SDS011;465;48.802;9.224;2022-08-21T10:31:50;4.73;;;3.90;;
956;SDS011;465;48.802;9.224;2022-08-21T10:34:29;7.70;;;4.00;;
956;SDS011;465;48.802;9.224;2022-08-21T10:37:10;5.40;;;3.90;;
956;SDS011;465;48.802;9.224;2022-08-21T10:39:47;7.40;;;4.23;;
956;SDS011;465;48.802;9.224;2022-08-21T10:42:25;7.50;;;4.87;;
956;SDS011;465;48.802;9.224;2022-08-21T10:45:05;5.57;;;4.53;;
956;SDS011;465;48.802;9.224;2022-08-21T10:47:41;4.70;;;3.90;;
956;SDS011;465;48.802;9.224;2022-08-21T10:50:16;5.13;;;4.17;;
956;SDS011;465;48.802;9.224;2022-08-21T10:52:56;4.87;;;4.37;;
956;SDS011;465;48.802;9.224;2022-08-21T10:55:34;5.53;;;4.27;;
956;SDS011;465;48.802;9.224;2022-08-21T10:58:05;4.17;;;3.80;;
956;SDS011;465;48.802;9.224;2022-08-21T11:00:39;6.03;;;4.30;;
956;SDS011;465;48.802;9.224;2022-08-21T11:03:13;5.30;;;3.93;;
956;SDS011;465;48.802;9.224;2022-08-21T11:05:44;4.40;;;3.73;;
956;SDS011;465;48.802;9.224;2022-08-21T11:08:19;6.03;;;4.83;;
956;SDS011;465;48.802;9.224;2022-08-21T11:10:50;5.30;;;4.40;;
956;SDS011;465;48.802;9.224;2022-08-21T11:13:24;5.10;;;3.53;;
956;SDS011;465;48.802;9.224;2022-08-21T11:15:56;4.97;;;4.03;;
956;SDS011;465;48.802;9.224;2022-08-21T11:18:31;5.50;;;4.13;;
956;SDS011;465;48.802;9.224;2022-08-21T11:21:02;7.53;;;4.43;;
956;SDS011;465;48.802;9.224;2022-08-21T11:23:39;8.10;;;4.77;;
956;SDS011;465;48.802;9.224;2022-08-21T11:26:11;4.90;;;3.80;;
956;SDS011;465;48.802;9.224;2022-08-21T11:28:44;3.87;;;3.50;;
956;SDS011;465;48.802;9.224;2022-08-21T11:31:23;5.97;;;4.40;;
956;SDS011;465;48.802;9.224;2022-08-21T11:34:05;4.20;;;3.80;;
956;SDS011;465;48.802;9.224;2022-08-21T11:36:42;6.80;;;4.13;;
956;SDS011;465;48.802;9.224;2022-08-21T11:39:19;6.43;;;3.80;;
956;SDS011;465;48.802;9.224;2022-08-21T11:41:53;4.93;;;3.73;;
956;SDS011;465;48.802;9.224;2022-08-21T11:44:38;4.97;;;4.00;;
956;SDS011;465;48.802;9.224;2022-08-21T11:47:19;5.30;;;3.60;;
956;SDS011;465;48.802;9.224;2022-08-21T11:50:02;5.43;;;3.70;;
956;SDS011;465;48.802;9.224;2022-08-21T11:52:40;4.77;;;3.73;;
956;SDS011;465;48.802;9.224;2022-08-21T11:55:12;5.87;;;3.80;;
956;SDS011;465;48.802;9.224;2022-08-21T11:57:45;4.27;;;3.30;;
956;SDS011;465;48.802;9.224;2022-08-21T12:00:18;5.47;;;3.97;;
956;SDS011;465;48.802;9.224;2022-08-21T12:02:50;4.70;;;3.57;;
956;SDS011;465;48.802;9.224;2022-08-21T12:05:22;5.03;;;3.50;;
956;SDS011;465;48.802;9.224;2022-08-21T12:07:59;6.30;;;4.30;;
956;SDS011;465;48.802;9.224;2022-08-21T12:10:32;8.43;;;4.73;;
956;SDS011;465;48.802;9.224;2022-08-21T12:13:06;6.43;;;4.13;;
956;SDS011;465;48.802;9.224;2022-08-21T12:15:36;6.83;;;3.90;;
956;SDS011;465;48.802;9.224;2022-08-21T12:18:06;3.60;;;3.27;;
956;SDS011;465;48.802;9.224;2022-08-21T12:20:56;5.67;;;4.00;;
956;SDS011;465;48.802;9.224;2022-08-21T12:23:29;4.60;;;3.80;;
956;SDS011;465;48.802;9.224;2022-08-21T12:31:55;4.00;;;3.57;;
956;SDS011;465;48.802;9.224;2022-08-21T12:34:25;3.97;;;3.60;;
956;SDS011;465;48.802;9.224;2022-08-21T12:36:59;4.67;;;3.70;;
956;SDS011;465;48.802;9.224;2022-08-21T12:39:30;4.33;;;3.67;;
956;SDS011;465;48.802;9.224;2022-08-21T12:42:00;6.73;;;4.10;;
956;SDS011;465;48.802;9.224;2022-08-21T12:44:35;3.50;;;3.20;;
956;SDS011;465;48.802;9.224;2022-08-21T12:47:11;4.33;;;3.67;;
956;SDS011;465;48.802;9.224;2022-08-21T12:49:44;5.23;;;3.90;;
956;SDS011;465;48.802;9.224;2022-08-21T12:52:19;5.13;;;4.10;;
956;SDS011;465;48.802;9.224;2022-08-21T12:54:51;4.80;;;4.30;;
956;SDS011;465;48.802;9.224;2022-08-21T12:57:21;5.23;;;4.10;;
956;SDS011;465;48.802;9.224;2022-08-21T12:59:53;7.20;;;3.67;;
956;SDS011;465;48.802;9.224;2022-08-21T13:02:21;5.50;;;3.30;;
956;SDS011;465;48.802;9.224;2022-08-21T13:04:50;4.77;;;3.97;;
956;SDS011;465;48.802;9.224;2022-08-21T13:07:24;6.07;;;3.90;;
956;SDS011;465;48.802;9.224;2022-08-21T13:09:56;4.00;;;3.23;;
956;SDS011;465;48.802;9.224;2022-08-21T13:12:26;4.03;;;3.73;;
956;SDS011;465;48.802;9.224;2022-08-21T13:14:55;4.60;;;3.27;;
956;SDS011;465;48.802;9.224;2022-08-21T13:17:25;3.87;;;3.20;;
956;SDS011;465;48.802;9.224;2022-08-21T13:19:57;3.60;;;3.13;;
956;SDS011;465;48.802;9.224;2022-08-21T13:22:26;5.30;;;3.63;;
956;SDS011;465;48.802;9.224;2022-08-21T13:24:55;4.03;;;3.63;;
956;SDS011;465;48.802;9.224;2022-08-21T13:27:24;5.63;;;3.47;;
956;SDS011;465;48.802;9.224;2022-08-21T13:30:00;5.40;;;3.70;;
956;SDS011;465;48.802;9.224;2022-08-21T13:32:30;7.60;;;3.63;;
956;SDS011;465;48.802;9.224;2022-08-21T13:34:59;4.30;;;3.73;;
956;SDS011;465;48.802;9.224;2022-08-21T13:37:34;4.17;;;3.53;;
956;SDS011;465;48.802;9.224;2022-08-21T13:40:06;4.90;;;4.23;;
956;SDS011;465;48.802;9.224;2022-08-21T13:42:36;4.50;;;3.33;;
956;SDS011;465;48.802;9.224;2022-08-21T13:45:10;5.03;;;4.10;;
956;SDS011;465;48.802;9.224;2022-08-21T13:47:39;4.50;;;3.90;;
956;SDS011;465;48.802;9.224;2022-08-21T13:50:07;5.20;;;4.00;;
956;SDS011;465;48.802;9.224;2022-08-21T13:52:44;3.70;;;3.40;;
956;SDS011;465;48.802;9.224;2022-08-21T13:55:15;3.67;;;3.37;;
956;SDS011;465;48.802;9.224;2022-08-21T13:57:44;5.40;;;4.00;;
956;SDS011;465;48.802;9.224;2022-08-21T14:00:12;7.10;;;4.57;;
956;SDS011;465;48.802;9.224;2022-08-21T14:02:45;6.00;;;3.60;;
956;SDS011;465;48.802;9.224;2022-08-21T14:05:18;3.50;;;3.07;;
956;SDS011;465;48.802;9.224;2022-08-21T14:07:48;4.70;;;3.70;;
956;SDS011;465;48.802;9.224;2022-08-21T14:10:29;6.10;;;3.70;;
956;SDS011;465;48.802;9.224;2022-08-21T14:13:06;5.33;;;3.50;;
956;SDS011;465;48.802;9.224;2022-08-21T14:15:34;5.13;;;3.63;;
956;SDS011;465;48.802;9.224;2022-08-21T14:18:08;5.40;;;4.10;;
956;SDS011;465;48.802;9.224;2022-08-21T14:20:42;7.13;;;4.13;;
956;SDS011;465;48.802;9.224;2022-08-21T14:23:10;6.10;;;4.13;;
956;SDS011;465;48.802;9.224;2022-08-21T14:25:49;5.23;;;3.90;;
956;SDS011;465;48.802;9.224;2022-08-21T14:28:21;5.47;;;4.00;;
956;SDS011;465;48.802;9.224;2022-08-21T14:30:52;4.00;;;3.60;;
956;SDS011;465;48.802;9.224;2022-08-21T14:33:22;9.27;;;3.77;;
956;SDS011;465;48.802;9.224;2022-08-21T14:35:52;4.40;;;4.00;;
956;SDS011;465;48.802;9.224;2022-08-21T14:38:21;5.73;;;4.33;;
956;SDS011;465;48.802;9.224;2022-08-21T14:40:50;4.70;;;3.60;;
956;SDS011;465;48.802;9.224;2022-08-21T14:43:20;4.03;;;3.63;;
956;SDS011;465;48.802;9.224;2022-08-21T14:45:47;3.80;;;3.40;;
956;SDS011;465;48.802;9.224;2022-08-21T14:48:19;5.70;;;3.90;;
956;SDS011;465;48.802;9.224;2022-08-21T14:50:49;4.93;;;3.73;;
956;SDS011;465;48.802;9.224;2022-08-21T14:53:17;5.03;;;4.20;;
956;SDS011;465;48.802;9.224;2022-08-21T14:55:49;5.00;;;3.37;;
956;SDS011;465;48.802;9.224;2022-08-21T14:58:37;5.00;;;3.33;;
956;SDS011;465;48.802;9.224;2022-08-21T15:01:08;5.00;;;3.20;;
956;SDS011;465;48.802;9.224;2022-08-21T15:03:40;4.53;;;3.30;;
956;SDS011;465;48.802;9.224;2022-08-21T15:06:08;3.80;;;3.47;;
956;SDS011;465;48.802;9.224;2022-08-21T15:08:35;3.90;;;3.33;;
956;SDS011;465;48.802;9.224;2022-08-21T15:11:03;6.70;;;3.60;;
956;SDS011;465;48.802;9.224;2022-08-21T15:13:36;5.07;;;3.50;;
956;SDS011;465;48.802;9.224;2022-08-21T15:16:07;6.00;;;3.73;;
956;SDS011;465;48.802;9.224;2022-08-21T15:18:40;6.57;;;3.73;;
956;SDS011;465;48.802;9.224;2022-08-21T15:21:12;4.73;;;3.90;;
956;SDS011;465;48.802;9.224;2022-08-21T15:23:42;4.27;;;3.30;;
956;SDS011;465;48.802;9.224;2022-08-21T15:26:12;4.77;;;3.57;;
956;SDS011;465;48.802;9.224;2022-08-21T15:28:40;3.43;;;3.07;;
956;SDS011;465;48.802;9.224;2022-08-21T15:31:10;5.43;;;3.77;;
956;SDS011;465;48.802;9.224;2022-08-21T15:33:37;4.13;;;3.50;;
956;SDS011;465;48.802;9.224;2022-08-21T15:36:04;4.90;;;3.30;;
956;SDS011;465;48.802;9.224;2022-08-21T15:38:33;4.37;;;3.50;;
956;SDS011;465;48.802;9.224;2022-08-21T15:41:03;5.10;;;3.43;;
956;SDS011;465;48.802;9.224;2022-08-21T15:43:33;3.60;;;3.20;;
956;SDS011;465;48.802;9.224;2022-08-21T15:46:13;3.37;;;3.07;;
956;SDS011;465;48.802;9.224;2022-08-21T15:48:43;4.90;;;4.03;;
956;SDS011;465;48.802;9.224;2022-08-21T15:51:15;5.03;;;3.63;;
956;SDS011;465;48.802;9.224;2022-08-21T15:53:45;4.60;;;3.47;;
956;SDS011;465;48.802;9.224;2022-08-21T15:56:14;4.03;;;3.33;;
956;SDS011;465;48.802;9.224;2022-08-21T15:58:47;3.43;;;3.10;;
956;SDS011;465;48.802;9.224;2022-08-21T16:01:15;4.70;;;3.30;;
956;SDS011;465;48.802;9.224;2022-08-21T16:03:42;5.30;;;3.80;;
956;SDS011;465;48.802;9.224;2022-08-21T16:06:14;4.97;;;3.50;;
956;SDS011;465;48.802;9.224;2022-08-21T16:08:41;5.87;;;3.13;;
956;SDS011;465;48.802;9.224;2022-08-21T16:11:08;6.70;;;3.40;;